createdAt,value
2023-03-06T00:00:51.154Z,11.23
2023-03-06T00:01:54.076Z,11.82
2023-03-06T00:02:57.441Z,11.32
2023-03-06T00:03:59.459Z,10.75
2023-03-06T00:05:03.777Z,9.40
2023-03-06T00:06:06.227Z,10.32
2023-03-06T00:07:09.167Z,14.13
2023-03-06T00:08:11.549Z,13.50
2023-03-06T00:09:14.722Z,9.70
2023-03-06T00:10:19.166Z,10.43
2023-03-06T00:11:22.338Z,8.20
2023-03-06T00:12:24.309Z,15.90
2023-03-06T00:13:30.003Z,10.95
2023-03-06T00:14:32.327Z,7.85
2023-03-06T00:15:35.378Z,6.95
2023-03-06T00:16:37.414Z,12.85
2023-03-06T00:17:40.672Z,13.15
2023-03-06T00:18:44.036Z,11.27
2023-03-06T00:19:47.314Z,9.43
2023-03-06T00:20:50.638Z,10.02
2023-03-06T00:21:53.601Z,11.48
2023-03-06T00:22:56.487Z,15.00
2023-03-06T00:23:59.396Z,11.93
2023-03-06T00:25:01.339Z,9.18
2023-03-06T00:26:07.409Z,12.43
2023-03-06T00:27:10.032Z,11.25
2023-03-06T00:28:14.845Z,8.68
2023-03-06T00:29:16.999Z,12.25
2023-03-06T00:30:22.353Z,7.45
2023-03-06T00:31:24.350Z,7.80
2023-03-06T00:32:28.382Z,10.88
2023-03-06T00:33:30.762Z,9.73
2023-03-06T00:34:33.932Z,10.60
2023-03-06T00:35:37.962Z,9.23
2023-03-06T00:36:42.656Z,11.52
2023-03-06T00:37:45.180Z,8.95
2023-03-06T00:38:48.082Z,11.98
2023-03-06T00:39:50.206Z,13.25
2023-03-06T00:40:53.071Z,10.75
2023-03-06T00:41:55.538Z,9.23
2023-03-06T00:42:58.468Z,7.05
2023-03-06T00:44:00.376Z,8.27
2023-03-06T00:45:03.394Z,10.93
2023-03-06T00:46:05.824Z,10.57
2023-03-06T00:47:09.277Z,9.57
2023-03-06T00:48:11.225Z,9.95
2023-03-06T00:49:14.288Z,7.10
2023-03-06T00:50:16.330Z,8.60
2023-03-06T00:51:19.788Z,8.68
2023-03-06T00:52:23.750Z,11.82
2023-03-06T00:53:27.021Z,12.52
2023-03-06T00:54:29.026Z,10.45
2023-03-06T00:55:33.368Z,10.82
2023-03-06T00:56:35.844Z,8.07
2023-03-06T00:57:39.228Z,13.10
2023-03-06T00:58:41.131Z,9.40
2023-03-06T00:59:44.208Z,8.32
2023-03-06T01:00:46.351Z,8.07
2023-03-06T01:01:49.378Z,10.93
2023-03-06T01:02:53.544Z,9.02
2023-03-06T01:03:56.561Z,16.30
2023-03-06T01:04:58.596Z,11.65
2023-03-06T01:06:01.510Z,15.82
2023-03-06T01:07:03.656Z,10.05
2023-03-06T01:08:08.834Z,12.77
2023-03-06T01:09:10.840Z,13.60
2023-03-06T01:10:13.905Z,13.02
2023-03-06T01:11:16.873Z,13.88
2023-03-06T01:12:18.881Z,10.80
2023-03-06T01:13:21.855Z,9.90
2023-03-06T01:14:24.314Z,6.78
2023-03-06T01:15:27.269Z,10.23
2023-03-06T01:16:29.463Z,10.68
2023-03-06T01:17:32.399Z,14.77
2023-03-06T01:18:34.520Z,11.70
2023-03-06T01:19:37.493Z,10.93
2023-03-06T01:20:39.505Z,10.77
2023-03-06T01:21:42.491Z,15.60
2023-03-06T01:22:44.570Z,8.85
2023-03-06T01:23:48.866Z,11.80
2023-03-06T01:24:50.815Z,10.38
2023-03-06T01:25:53.736Z,13.70
2023-03-06T01:26:55.664Z,14.73
2023-03-06T01:27:58.579Z,14.30
2023-03-06T01:29:00.761Z,11.70
2023-03-06T01:30:04.386Z,11.13
2023-03-06T01:31:07.599Z,10.43
2023-03-06T01:32:10.563Z,10.85
2023-03-06T01:33:12.542Z,10.45
2023-03-06T01:34:15.613Z,13.82
2023-03-06T01:35:17.758Z,10.40
2023-03-06T01:36:20.782Z,12.68
2023-03-06T01:37:22.727Z,14.00
2023-03-06T01:38:25.804Z,12.40
2023-03-06T01:39:29.178Z,11.55
2023-03-06T01:40:32.820Z,11.60
2023-03-06T01:41:34.777Z,12.02
2023-03-06T01:42:37.912Z,12.02
2023-03-06T01:43:44.600Z,12.40
2023-03-06T01:45:01.444Z,11.00
2023-03-06T01:46:34.368Z,13.35
2023-03-06T01:47:36.336Z,11.85
2023-03-06T01:48:39.415Z,13.45
2023-03-06T01:49:42.156Z,11.68
2023-03-06T01:50:45.250Z,13.25
2023-03-06T01:51:51.283Z,15.02
2023-03-06T01:52:58.928Z,14.25
2023-03-06T01:54:05.256Z,17.50
2023-03-06T01:55:12.454Z,16.63
2023-03-06T01:56:15.032Z,12.82
2023-03-06T01:57:21.579Z,13.63
2023-03-06T01:58:23.707Z,10.48
2023-03-06T01:59:27.542Z,15.75
2023-03-06T02:00:30.079Z,16.70
2023-03-06T02:01:34.135Z,13.45
2023-03-06T02:02:36.860Z,17.73
2023-03-06T02:03:42.224Z,16.48
2023-03-06T02:04:44.667Z,12.88
2023-03-06T02:05:47.745Z,15.40
2023-03-06T02:06:50.729Z,15.32
2023-03-06T02:07:54.511Z,12.35
2023-03-06T02:08:56.651Z,13.75
2023-03-06T02:09:59.959Z,14.55
2023-03-06T02:11:12.298Z,12.50
2023-03-06T02:12:20.585Z,17.08
2023-03-06T02:13:22.577Z,18.08
2023-03-06T02:14:26.000Z,16.10
2023-03-06T02:15:29.287Z,17.92
2023-03-06T02:16:34.166Z,18.13
2023-03-06T02:17:36.852Z,11.70
2023-03-06T02:18:41.935Z,17.40
2023-03-06T02:19:52.933Z,17.23
2023-03-06T02:20:58.572Z,21.08
2023-03-06T02:22:00.721Z,15.70
2023-03-06T02:23:09.348Z,18.52
2023-03-06T02:24:23.902Z,16.35
2023-03-06T02:25:36.779Z,15.98
2023-03-06T02:26:41.980Z,12.95
2023-03-06T02:27:45.102Z,13.13
2023-03-06T02:28:47.188Z,12.80
2023-03-06T02:29:50.104Z,16.00
2023-03-06T02:30:53.915Z,15.80
2023-03-06T02:31:57.283Z,14.80
2023-03-06T02:33:00.045Z,11.02
2023-03-06T02:34:10.168Z,13.23
2023-03-06T02:35:19.641Z,15.20
2023-03-06T02:36:22.676Z,17.63
2023-03-06T02:37:26.966Z,15.95
2023-03-06T02:38:35.136Z,17.20
2023-03-06T02:39:41.191Z,14.18
2023-03-06T02:40:47.939Z,13.15
2023-03-06T02:41:50.126Z,16.58
2023-03-06T02:42:56.226Z,13.40
2023-03-06T02:43:58.175Z,15.43
2023-03-06T02:45:03.298Z,13.82
2023-03-06T02:46:06.016Z,13.43
2023-03-06T02:47:09.008Z,16.75
2023-03-06T02:48:12.015Z,18.15
2023-03-06T02:49:14.995Z,18.73
2023-03-06T02:50:17.531Z,16.60
2023-03-06T02:51:20.429Z,14.35
2023-03-06T02:52:22.378Z,17.23
2023-03-06T02:53:25.620Z,19.25
2023-03-06T02:54:27.703Z,16.05
2023-03-06T02:55:30.653Z,14.07
2023-03-06T02:56:34.012Z,14.05
2023-03-06T02:57:36.952Z,20.15
2023-03-06T02:58:39.032Z,16.55
2023-03-06T02:59:41.935Z,16.08
2023-03-06T03:00:43.880Z,14.65
2023-03-06T03:01:47.691Z,22.67
2023-03-06T03:02:49.724Z,14.13
2023-03-06T03:03:52.663Z,13.05
2023-03-06T03:04:54.689Z,16.52
2023-03-06T03:05:57.615Z,18.15
2023-03-06T03:06:59.540Z,16.73
2023-03-06T03:08:02.472Z,13.32
2023-03-06T03:09:04.471Z,15.15
2023-03-06T03:10:08.405Z,15.25
2023-03-06T03:11:12.202Z,21.25
2023-03-06T03:12:15.604Z,19.00
2023-03-06T03:13:19.517Z,15.23
2023-03-06T03:14:21.436Z,17.60
2023-03-06T03:15:24.428Z,13.55
2023-03-06T03:16:26.384Z,16.17
2023-03-06T03:17:29.927Z,13.75
2023-03-06T03:18:32.022Z,10.63
2023-03-06T03:19:35.367Z,14.70
2023-03-06T03:20:37.470Z,16.20
2023-03-06T03:21:41.950Z,14.35
2023-03-06T03:22:48.255Z,17.58
2023-03-06T03:23:51.273Z,14.00
2023-03-06T03:24:53.276Z,16.67
2023-03-06T03:25:56.265Z,18.40
2023-03-06T03:26:58.336Z,17.88
2023-03-06T03:28:02.640Z,12.70
2023-03-06T03:29:05.093Z,17.02
2023-03-06T03:30:09.442Z,15.90
2023-03-06T03:31:12.297Z,15.77
2023-03-06T03:32:15.322Z,13.30
2023-03-06T03:33:17.265Z,13.48
2023-03-06T03:34:20.171Z,17.58
2023-03-06T03:35:22.107Z,21.33
2023-03-06T03:36:26.017Z,17.33
2023-03-06T03:37:28.033Z,16.83
2023-03-06T03:38:31.483Z,16.38
2023-03-06T03:39:33.788Z,15.07
2023-03-06T03:40:36.670Z,15.25
2023-03-06T03:41:38.602Z,18.42
2023-03-06T03:42:41.574Z,23.70
2023-03-06T03:43:44.875Z,24.52
2023-03-06T03:44:47.955Z,17.15
2023-03-06T03:45:49.984Z,19.52
2023-03-06T03:46:53.156Z,13.23
2023-03-06T03:47:55.081Z,20.65
2023-03-06T03:48:58.393Z,12.95
2023-03-06T03:50:00.348Z,18.20
2023-03-06T03:51:06.969Z,12.55
2023-03-06T03:52:12.458Z,17.52
2023-03-06T03:53:15.412Z,16.50
2023-03-06T03:54:17.350Z,16.58
2023-03-06T03:55:20.391Z,14.98
2023-03-06T03:56:22.430Z,22.73
2023-03-06T03:57:25.511Z,17.23
2023-03-06T03:58:27.471Z,16.73
2023-03-06T03:59:31.791Z,15.35
2023-03-06T04:00:33.770Z,16.80
2023-03-06T04:01:39.152Z,16.48
2023-03-06T04:02:41.672Z,16.08
2023-03-06T04:03:44.898Z,15.02
2023-03-06T04:04:46.911Z,13.27
2023-03-06T04:05:49.948Z,15.65
2023-03-06T04:06:51.928Z,17.42
2023-03-06T04:07:54.820Z,19.60
2023-03-06T04:08:57.013Z,15.50
2023-03-06T04:09:59.902Z,14.55
2023-03-06T04:11:02.941Z,16.40
2023-03-06T04:12:06.564Z,20.58
2023-03-06T04:13:10.069Z,18.08
2023-03-06T04:14:13.212Z,15.90
2023-03-06T04:15:16.600Z,18.52
2023-03-06T04:16:19.577Z,18.80
2023-03-06T04:17:21.553Z,15.48
2023-03-06T04:18:24.833Z,16.10
2023-03-06T04:19:26.752Z,13.98
2023-03-06T04:20:29.860Z,19.55
2023-03-06T04:21:31.779Z,19.38
2023-03-06T04:22:34.756Z,15.63
2023-03-06T04:23:36.972Z,18.27
2023-03-06T04:24:39.923Z,17.13
2023-03-06T04:25:42.198Z,18.40
2023-03-06T04:26:45.139Z,14.95
2023-03-06T04:27:47.070Z,17.10
2023-03-06T04:28:50.012Z,15.32
2023-03-06T04:29:54.079Z,21.05
2023-03-06T04:30:58.495Z,17.63
2023-03-06T04:32:00.454Z,18.60
2023-03-06T04:33:03.500Z,21.50
2023-03-06T04:34:05.506Z,19.33
2023-03-06T04:35:08.937Z,15.93
2023-03-06T04:36:25.827Z,15.57
2023-03-06T04:37:27.809Z,16.88
2023-03-06T04:38:31.024Z,14.45
2023-03-06T04:39:33.046Z,13.35
2023-03-06T04:40:37.351Z,21.73
2023-03-06T04:41:39.679Z,20.73
2023-03-06T04:42:42.609Z,18.38
2023-03-06T04:43:44.742Z,17.70
2023-03-06T04:44:47.848Z,15.13
2023-03-06T04:45:49.890Z,16.42
2023-03-06T04:46:54.288Z,15.80
2023-03-06T04:47:57.678Z,15.77
2023-03-06T04:49:00.906Z,14.90
2023-03-06T04:50:03.910Z,16.27
2023-03-06T04:51:07.152Z,20.30
2023-03-06T04:52:09.284Z,20.52
2023-03-06T04:53:12.315Z,13.18
2023-03-06T04:54:14.390Z,17.20
2023-03-06T04:55:18.111Z,15.93
2023-03-06T04:56:20.089Z,18.23
2023-03-06T04:57:23.774Z,16.48
2023-03-06T04:58:25.778Z,13.57
2023-03-06T04:59:28.837Z,24.25
2023-03-06T05:00:31.660Z,16.35
2023-03-06T05:01:34.699Z,15.23
2023-03-06T05:02:38.053Z,15.32
2023-03-06T05:03:41.016Z,17.58
2023-03-06T05:04:43.030Z,18.33
2023-03-06T05:05:45.922Z,19.67
2023-03-06T05:06:47.904Z,14.63
2023-03-06T05:07:51.020Z,16.73
2023-03-06T05:08:52.959Z,15.35
2023-03-06T05:09:56.063Z,22.27
2023-03-06T05:11:00.462Z,16.40
2023-03-06T05:12:04.329Z,19.02
2023-03-06T05:13:06.340Z,20.30
2023-03-06T05:14:09.231Z,14.30
2023-03-06T05:15:12.753Z,14.73
2023-03-06T05:16:15.767Z,16.35
2023-03-06T05:17:17.769Z,17.45
2023-03-06T05:18:22.389Z,18.67
2023-03-06T05:19:24.375Z,24.80
2023-03-06T05:20:28.620Z,13.70
2023-03-06T05:21:30.574Z,15.77
2023-03-06T05:22:33.702Z,16.88
2023-03-06T05:23:38.586Z,17.58
2023-03-06T05:24:41.677Z,15.13
2023-03-06T05:25:43.652Z,15.93
2023-03-06T05:26:46.582Z,15.00
2023-03-06T05:27:48.554Z,13.30
2023-03-06T05:28:51.493Z,16.25
2023-03-06T05:29:54.435Z,17.02
2023-03-06T05:30:57.903Z,19.00
2023-03-06T05:31:59.965Z,18.58
2023-03-06T05:33:02.988Z,20.48
2023-03-06T05:34:06.325Z,16.65
2023-03-06T05:35:09.797Z,21.23
2023-03-06T05:36:11.824Z,19.85
2023-03-06T05:37:14.790Z,20.05
2023-03-06T05:38:18.682Z,15.27
2023-03-06T05:39:20.922Z,22.48
2023-03-06T05:40:23.883Z,24.98
2023-03-06T05:41:25.822Z,30.35
2023-03-06T05:42:31.548Z,58.70
2023-03-06T05:43:33.539Z,32.05
2023-03-06T05:44:37.779Z,20.00
2023-03-06T05:45:40.675Z,20.73
2023-03-06T05:46:43.671Z,15.73
2023-03-06T05:47:45.641Z,15.70
2023-03-06T05:48:48.779Z,17.52
2023-03-06T05:49:54.582Z,13.75
2023-03-06T05:50:57.830Z,19.50
2023-03-06T05:51:59.995Z,17.80
2023-03-06T05:53:02.960Z,16.38
2023-03-06T05:54:04.969Z,20.48
2023-03-06T05:55:09.490Z,17.17
2023-03-06T05:56:12.789Z,17.88
2023-03-06T05:57:14.848Z,16.85
2023-03-06T05:58:17.753Z,15.73
2023-03-06T05:59:19.768Z,14.35
2023-03-06T06:00:24.072Z,11.95
2023-03-06T06:01:28.424Z,19.13
2023-03-06T06:02:31.455Z,16.55
2023-03-06T06:03:33.547Z,16.95
2023-03-06T06:04:36.572Z,16.35
2023-03-06T06:05:42.356Z,15.98
2023-03-06T06:06:44.321Z,16.52
2023-03-06T06:07:47.295Z,19.48
2023-03-06T06:08:49.235Z,17.05
2023-03-06T06:09:54.702Z,19.58
2023-03-06T06:10:57.679Z,15.00
2023-03-06T06:12:02.280Z,15.30
2023-03-06T06:13:05.302Z,19.23
2023-03-06T06:14:07.199Z,17.23
2023-03-06T06:15:10.891Z,20.25
2023-03-06T06:16:15.769Z,19.15
2023-03-06T06:17:18.893Z,20.30
2023-03-06T06:18:21.878Z,14.52
2023-03-06T06:19:24.059Z,19.02
2023-03-06T06:20:27.558Z,18.48
2023-03-06T06:21:30.817Z,18.45
2023-03-06T06:22:36.976Z,17.33
2023-03-06T06:23:40.051Z,16.73
2023-03-06T06:24:43.007Z,19.17
2023-03-06T06:25:45.170Z,17.52
2023-03-06T06:26:50.516Z,14.48
2023-03-06T06:27:55.209Z,16.10
2023-03-06T06:29:00.110Z,22.50
2023-03-06T06:30:03.396Z,14.32
2023-03-06T06:31:10.624Z,15.35
2023-03-06T06:32:12.690Z,15.35
2023-03-06T06:33:15.616Z,15.60
2023-03-06T06:34:18.357Z,17.63
2023-03-06T06:35:21.376Z,22.45
2023-03-06T06:36:23.388Z,18.55
2023-03-06T06:37:27.747Z,15.63
2023-03-06T06:38:29.674Z,15.55
2023-03-06T06:39:32.733Z,16.23
2023-03-06T06:40:34.934Z,17.42
2023-03-06T06:42:09.579Z,18.27
2023-03-06T06:43:01.142Z,19.35
2023-03-06T06:44:08.561Z,17.40
2023-03-06T06:45:12.496Z,20.05
2023-03-06T06:46:44.658Z,21.45
2023-03-06T06:47:40.988Z,18.88
2023-03-06T06:48:42.948Z,18.65
2023-03-06T06:49:46.470Z,28.85
2023-03-06T06:50:55.320Z,16.15
2023-03-06T06:51:58.379Z,17.30
2023-03-06T06:53:01.739Z,18.00
2023-03-06T06:54:04.812Z,17.85
2023-03-06T06:55:07.455Z,17.60
2023-03-06T06:56:10.375Z,16.58
2023-03-06T06:57:13.006Z,21.25
2023-03-06T06:58:17.082Z,15.50
2023-03-06T06:59:19.190Z,16.15
2023-03-06T07:00:22.893Z,16.15
2023-03-06T07:01:25.180Z,13.88
2023-03-06T07:02:30.153Z,15.07
2023-03-06T07:03:32.115Z,15.95
2023-03-06T07:04:35.479Z,14.95
2023-03-06T07:05:37.468Z,18.27
2023-03-06T07:06:40.417Z,13.68
2023-03-06T07:07:42.557Z,16.88
2023-03-06T07:08:46.890Z,17.85
2023-03-06T07:09:48.899Z,13.90
2023-03-06T07:10:51.845Z,14.38
2023-03-06T07:11:53.749Z,16.52
2023-03-06T07:12:56.757Z,13.57
2023-03-06T07:13:58.874Z,10.75
2023-03-06T07:15:01.872Z,16.15
2023-03-06T07:16:04.331Z,15.23
2023-03-06T07:17:07.352Z,13.18
2023-03-06T07:18:09.296Z,14.35
2023-03-06T07:19:12.244Z,14.95
2023-03-06T07:20:17.923Z,15.40
2023-03-06T07:21:21.397Z,14.23
2023-03-06T07:22:23.351Z,14.40
2023-03-06T07:23:27.344Z,18.77
2023-03-06T07:24:30.705Z,12.77
2023-03-06T07:26:07.414Z,16.65
2023-03-06T07:27:10.389Z,15.80
2023-03-06T07:28:12.742Z,13.48
2023-03-06T07:29:16.062Z,12.43
2023-03-06T07:30:18.227Z,13.50
2023-03-06T07:31:22.657Z,11.88
2023-03-06T07:32:24.997Z,15.60
2023-03-06T07:33:27.940Z,13.68
2023-03-06T07:34:29.983Z,16.35
2023-03-06T07:35:32.993Z,10.82
2023-03-06T07:36:36.753Z,12.75
2023-03-06T07:37:38.765Z,16.40
2023-03-06T07:38:41.777Z,15.07
2023-03-06T07:39:45.056Z,16.65
2023-03-06T07:40:51.848Z,14.10
2023-03-06T07:41:54.025Z,10.73
2023-03-06T07:43:12.942Z,13.32
2023-03-06T07:44:20.094Z,14.20
2023-03-06T07:45:22.408Z,12.85
2023-03-06T07:46:25.395Z,11.82
2023-03-06T07:47:28.436Z,13.50
2023-03-06T07:48:30.859Z,17.80
2023-03-06T07:49:33.842Z,11.77
2023-03-06T07:50:35.786Z,14.10
2023-03-06T07:51:38.741Z,13.02
2023-03-06T07:52:40.727Z,18.83
2023-03-06T07:53:43.715Z,13.00
2023-03-06T07:54:48.111Z,14.38
2023-03-06T07:55:51.103Z,15.43
2023-03-06T07:56:54.135Z,15.55
2023-03-06T07:57:56.101Z,13.85
2023-03-06T07:58:58.998Z,13.27
2023-03-06T08:00:00.909Z,13.57
2023-03-06T08:01:08.134Z,16.13
2023-03-06T08:02:11.600Z,16.27
2023-03-06T08:03:15.724Z,15.02
2023-03-06T08:04:19.132Z,12.50
2023-03-06T08:05:21.209Z,14.30
2023-03-06T08:06:26.095Z,19.58
2023-03-06T08:07:29.668Z,12.50
2023-03-06T08:08:32.905Z,17.17
2023-03-06T08:09:35.575Z,13.70
2023-03-06T08:10:39.926Z,17.17
2023-03-06T08:11:42.891Z,16.05
2023-03-06T08:12:45.170Z,18.92
2023-03-06T08:13:49.149Z,18.27
2023-03-06T08:14:51.095Z,16.27
2023-03-06T08:15:54.051Z,13.60
2023-03-06T08:16:57.371Z,17.30
2023-03-06T08:18:00.362Z,15.98
2023-03-06T08:19:02.799Z,18.42
2023-03-06T08:20:06.955Z,16.27
2023-03-06T08:21:12.090Z,14.52
2023-03-06T08:22:14.992Z,15.23
2023-03-06T08:23:17.522Z,18.23
2023-03-06T08:24:20.486Z,17.00
2023-03-06T08:25:22.892Z,18.15
2023-03-06T08:26:28.944Z,12.38
2023-03-06T08:27:33.078Z,13.75
2023-03-06T08:28:36.302Z,17.95
2023-03-06T08:29:38.368Z,14.90
2023-03-06T08:30:41.435Z,15.48
2023-03-06T08:31:45.116Z,16.85
2023-03-06T08:32:48.091Z,18.05
2023-03-06T08:33:50.398Z,20.33
2023-03-06T08:34:53.665Z,15.10
2023-03-06T08:35:56.759Z,15.20
2023-03-06T08:36:58.741Z,14.60
2023-03-06T08:38:01.658Z,15.40
2023-03-06T08:39:04.339Z,13.85
2023-03-06T08:40:08.645Z,18.58
2023-03-06T08:41:10.644Z,16.73
2023-03-06T08:42:15.952Z,15.75
2023-03-06T08:43:17.881Z,15.50
2023-03-06T08:44:20.839Z,15.50
2023-03-06T08:45:22.904Z,17.65
2023-03-06T08:46:27.599Z,15.13
2023-03-06T08:47:30.587Z,15.88
2023-03-06T08:48:32.603Z,15.82
2023-03-06T08:49:36.187Z,15.00
2023-03-06T08:50:38.212Z,15.88
2023-03-06T08:51:42.426Z,18.25
2023-03-06T08:52:45.381Z,12.00
2023-03-06T08:53:48.008Z,14.25
2023-03-06T08:54:51.020Z,20.20
2023-03-06T08:55:52.961Z,18.35
2023-03-06T08:56:55.846Z,18.17
2023-03-06T08:58:00.620Z,18.23
2023-03-06T08:59:05.886Z,30.35
2023-03-06T09:00:11.813Z,35.95
2023-03-06T09:01:14.964Z,23.27
2023-03-06T09:02:18.117Z,25.85
2023-03-06T09:03:20.193Z,32.17
2023-03-06T09:04:23.399Z,29.05
2023-03-06T09:05:25.645Z,24.27
2023-03-06T09:06:31.023Z,23.17
2023-03-06T09:07:34.145Z,24.60
2023-03-06T09:08:36.179Z,15.60
2023-03-06T09:09:39.140Z,17.65
2023-03-06T09:10:45.366Z,16.13
2023-03-06T09:11:48.330Z,20.08
2023-03-06T09:12:53.128Z,18.73
2023-03-06T09:13:59.662Z,14.68
2023-03-06T09:15:04.287Z,13.90
2023-03-06T09:16:08.414Z,16.77
2023-03-06T09:17:11.389Z,16.33
2023-03-06T09:18:13.378Z,15.15
2023-03-06T09:19:16.402Z,16.50
2023-03-06T09:20:24.971Z,18.67
2023-03-06T09:21:28.567Z,19.45
2023-03-06T09:22:31.549Z,23.48
2023-03-06T09:23:33.972Z,18.38
2023-03-06T09:24:36.945Z,20.65
2023-03-06T09:25:38.997Z,18.13
2023-03-06T09:26:47.059Z,19.00
2023-03-06T09:28:01.760Z,19.52
2023-03-06T09:29:09.877Z,15.32
2023-03-06T09:30:12.904Z,19.27
2023-03-06T09:31:18.108Z,16.25
2023-03-06T09:32:21.123Z,21.40
2023-03-06T09:33:23.859Z,18.58
2023-03-06T09:34:27.657Z,18.15
2023-03-06T09:35:29.811Z,18.65
2023-03-06T09:36:42.742Z,19.52
2023-03-06T09:37:52.375Z,23.38
2023-03-06T09:38:54.354Z,18.52
2023-03-06T09:39:57.789Z,16.80
2023-03-06T09:41:06.030Z,20.73
2023-03-06T09:42:14.618Z,16.85
2023-03-06T09:43:21.476Z,16.25
2023-03-06T09:44:27.803Z,17.67
2023-03-06T09:45:30.905Z,13.95
2023-03-06T09:46:59.707Z,15.70
2023-03-06T09:48:06.024Z,11.90
2023-03-06T09:49:23.081Z,16.08
2023-03-06T09:50:32.879Z,14.35
2023-03-06T09:51:49.234Z,12.35
2023-03-06T09:53:10.628Z,12.77
2023-03-06T09:54:15.704Z,19.45
2023-03-06T09:55:21.362Z,20.25
2023-03-06T09:56:30.951Z,15.15
2023-03-06T09:57:37.302Z,18.77
2023-03-06T09:58:43.945Z,14.00
2023-03-06T09:59:51.778Z,13.73
2023-03-06T10:01:01.818Z,14.13
2023-03-06T10:02:16.740Z,12.95
2023-03-06T10:03:27.051Z,14.85
2023-03-06T10:04:36.722Z,12.23
2023-03-06T10:05:43.108Z,13.85
2023-03-06T10:06:49.880Z,12.10
2023-03-06T10:07:57.073Z,7.30
2023-03-06T10:09:05.509Z,8.82
2023-03-06T10:10:18.580Z,8.38
2023-03-06T10:11:25.883Z,8.95
2023-03-06T10:12:33.517Z,8.82
2023-03-06T10:13:43.494Z,8.20
2023-03-06T10:14:53.963Z,6.53
2023-03-06T10:16:05.831Z,6.20
2023-03-06T10:17:17.648Z,6.00
2023-03-06T10:18:20.621Z,6.30
2023-03-06T10:19:24.783Z,6.97
2023-03-06T10:20:29.019Z,6.28
2023-03-06T10:21:48.465Z,4.30
2023-03-06T10:23:05.739Z,4.35
2023-03-06T10:24:20.644Z,4.45
2023-03-06T10:25:27.976Z,4.90
2023-03-06T10:26:36.884Z,5.03
2023-03-06T10:27:46.531Z,6.18
2023-03-06T10:29:01.405Z,5.80
2023-03-06T10:30:24.895Z,5.82
2023-03-06T10:31:29.408Z,6.35
2023-03-06T10:32:48.212Z,5.97
2023-03-06T10:33:56.456Z,8.27
2023-03-06T10:35:02.000Z,6.00
2023-03-06T10:36:04.649Z,3.15
2023-03-06T10:37:19.011Z,4.00
2023-03-06T10:38:24.003Z,5.72
2023-03-06T10:39:28.426Z,3.53
2023-03-06T10:40:39.273Z,5.38
2023-03-06T10:41:41.229Z,6.18
2023-03-06T10:42:44.288Z,5.72
2023-03-06T10:44:25.250Z,4.68
2023-03-06T10:45:29.918Z,5.47
2023-03-06T10:46:42.289Z,6.13
2023-03-06T10:47:46.412Z,5.00
2023-03-06T10:48:57.957Z,6.25
2023-03-06T10:50:02.808Z,7.93
2023-03-06T10:51:19.037Z,6.30
2023-03-06T10:52:22.542Z,6.70
2023-03-06T10:53:29.100Z,8.13
2023-03-06T10:54:32.960Z,10.48
2023-03-06T10:55:38.367Z,5.65
2023-03-06T10:56:42.344Z,6.30
2023-03-06T10:57:45.330Z,6.20
2023-03-06T10:58:48.249Z,7.50
2023-03-06T10:59:54.495Z,4.93
2023-03-06T11:01:08.170Z,7.07
2023-03-06T11:02:25.634Z,7.85
2023-03-06T11:03:29.257Z,4.47
2023-03-06T11:04:32.961Z,8.80
2023-03-06T11:05:35.994Z,6.57
2023-03-06T11:06:37.969Z,6.65
2023-03-06T11:07:55.789Z,7.28
2023-03-06T11:09:16.612Z,9.13
2023-03-06T11:10:20.655Z,9.10
2023-03-06T11:11:36.728Z,6.15
2023-03-06T11:12:40.422Z,8.50
2023-03-06T11:13:44.836Z,9.30
2023-03-06T11:14:46.823Z,10.10
2023-03-06T11:15:57.920Z,9.35
2023-03-06T11:17:02.261Z,8.93
2023-03-06T11:18:25.179Z,8.65
2023-03-06T11:19:32.715Z,5.75
2023-03-06T11:20:51.353Z,8.55
2023-03-06T11:22:03.247Z,13.75
2023-03-06T11:23:09.498Z,14.95
2023-03-06T11:24:18.848Z,8.43
2023-03-06T11:25:23.119Z,7.03
2023-03-06T11:26:33.632Z,12.10
2023-03-06T11:27:42.600Z,19.42
2023-03-06T11:28:49.328Z,14.55
2023-03-06T11:29:53.603Z,6.05
2023-03-06T11:31:00.623Z,6.53
2023-03-06T11:32:12.688Z,5.88
2023-03-06T11:33:27.941Z,5.78
2023-03-06T11:34:41.688Z,5.28
2023-03-06T11:35:52.879Z,8.50
2023-03-06T11:36:59.525Z,6.30
2023-03-06T11:38:12.429Z,8.50
2023-03-06T11:39:23.753Z,7.03
2023-03-06T11:40:31.970Z,6.22
2023-03-06T11:41:42.003Z,5.93
2023-03-06T11:42:52.849Z,5.65
2023-03-06T11:44:01.902Z,5.70
2023-03-06T11:45:20.860Z,4.78
2023-03-06T11:46:29.342Z,8.80
2023-03-06T11:47:39.020Z,7.78
2023-03-06T11:48:46.641Z,6.28
2023-03-06T11:49:55.258Z,6.60
2023-03-06T11:51:06.494Z,11.30
2023-03-06T11:52:19.203Z,15.00
2023-03-06T11:53:24.010Z,13.40
2023-03-06T11:54:27.414Z,14.70
2023-03-06T11:55:41.396Z,12.40
2023-03-06T11:56:52.744Z,18.50
2023-03-06T11:58:10.343Z,20.05
2023-03-06T11:59:36.869Z,15.70
2023-03-06T12:00:52.108Z,17.83
2023-03-06T12:02:04.042Z,16.02
2023-03-06T12:03:26.030Z,17.42
2023-03-06T12:04:50.997Z,12.45
2023-03-06T12:06:02.289Z,12.52
2023-03-06T12:07:16.902Z,13.30
2023-03-06T12:08:40.952Z,11.00
2023-03-06T12:09:51.300Z,10.43
2023-03-06T12:10:59.457Z,13.55
2023-03-06T12:12:20.456Z,10.93
2023-03-06T12:13:35.680Z,12.50
2023-03-06T12:14:52.746Z,11.55
2023-03-06T12:16:25.375Z,12.85
2023-03-06T12:17:36.677Z,11.27
2023-03-06T12:18:49.866Z,17.95
2023-03-06T12:20:20.529Z,12.50
2023-03-06T12:21:34.797Z,11.13
2023-03-06T12:22:57.793Z,13.35
2023-03-06T12:24:29.185Z,15.55
2023-03-06T12:25:38.136Z,8.43
2023-03-06T12:26:51.146Z,10.50
2023-03-06T12:28:10.489Z,17.05
2023-03-06T12:29:28.069Z,11.75
2023-03-06T12:30:45.328Z,7.72
2023-03-06T12:32:02.881Z,8.88
2023-03-06T12:33:15.093Z,7.65
2023-03-06T12:34:30.648Z,13.30
2023-03-06T12:36:06.354Z,7.85
2023-03-06T12:37:22.670Z,8.98
2023-03-06T12:38:52.986Z,9.52
2023-03-06T12:40:20.936Z,11.80
2023-03-06T12:41:33.609Z,8.65
2023-03-06T12:42:57.178Z,6.70
2023-03-06T12:44:23.277Z,7.22
2023-03-06T12:45:31.901Z,7.82
2023-03-06T12:46:39.626Z,10.50
2023-03-06T12:47:45.541Z,8.07
2023-03-06T12:48:53.419Z,8.63
2023-03-06T12:50:00.420Z,8.10
2023-03-06T12:51:03.963Z,8.35
2023-03-06T12:52:08.904Z,9.00
2023-03-06T12:53:16.112Z,10.60
2023-03-06T12:54:22.812Z,6.57
2023-03-06T12:55:26.557Z,8.75
2023-03-06T12:56:31.014Z,6.22
2023-03-06T12:57:33.945Z,6.97
2023-03-06T12:58:47.976Z,7.57
2023-03-06T12:59:51.308Z,7.43
2023-03-06T13:01:05.345Z,8.80
2023-03-06T13:02:34.417Z,4.75
2023-03-06T13:03:53.975Z,5.97
2023-03-06T13:05:31.702Z,7.32
2023-03-06T13:06:50.777Z,7.75
2023-03-06T13:08:25.025Z,5.55
2023-03-06T13:09:34.299Z,4.82
2023-03-06T13:10:39.716Z,5.22
2023-03-06T13:12:18.030Z,6.55
2023-03-06T13:13:32.650Z,6.30
2023-03-06T13:14:59.717Z,8.45
2023-03-06T13:54:09.375Z,6.63
2023-03-06T13:55:24.167Z,7.72
2023-03-06T13:57:02.072Z,5.97
2023-03-06T13:58:20.534Z,5.15
2023-03-06T14:00:08.235Z,4.30
2023-03-06T14:01:24.329Z,5.50
2023-03-06T14:03:02.597Z,5.18
2023-03-06T14:04:41.866Z,5.65
2023-03-06T14:05:46.949Z,5.13
2023-03-06T14:06:52.790Z,5.45
2023-03-06T14:08:09.135Z,6.80
2023-03-06T14:09:22.402Z,4.50
2023-03-06T14:10:26.866Z,4.57
2023-03-06T14:11:30.174Z,4.10
2023-03-06T14:12:35.600Z,4.30
2023-03-06T14:13:48.319Z,4.35
2023-03-06T14:14:56.339Z,8.95
2023-03-06T14:15:59.653Z,5.88
2023-03-06T14:17:05.249Z,9.48
2023-03-06T14:18:15.379Z,3.95
2023-03-06T14:19:19.669Z,6.70
2023-03-06T14:20:27.033Z,6.50
2023-03-06T14:21:33.152Z,6.20
2023-03-06T14:22:35.158Z,4.45
2023-03-06T14:23:42.497Z,3.92
2023-03-06T14:24:58.426Z,5.53
2023-03-06T14:26:09.041Z,5.38
2023-03-06T14:27:18.656Z,5.25
2023-03-06T14:28:26.142Z,6.65
2023-03-06T14:29:30.559Z,3.95
2023-03-06T14:30:32.500Z,2.78
2023-03-06T14:31:38.818Z,4.53
2023-03-06T14:32:41.453Z,5.70
2023-03-06T14:33:49.951Z,4.70
2023-03-06T14:34:52.130Z,4.85
2023-03-06T14:35:57.606Z,3.15
2023-03-06T14:37:03.076Z,4.60
2023-03-06T14:38:06.528Z,6.60
2023-03-06T14:39:14.498Z,5.30
2023-03-06T14:40:24.536Z,3.90
2023-03-06T14:41:30.454Z,5.13
2023-03-06T14:42:32.839Z,6.35
2023-03-06T14:43:35.844Z,8.90
2023-03-06T14:44:38.774Z,6.45
2023-03-06T14:45:50.758Z,4.93
2023-03-06T14:46:55.986Z,5.93
2023-03-06T14:47:57.924Z,3.55
2023-03-06T14:49:01.018Z,4.07
2023-03-06T14:50:23.064Z,4.50
2023-03-06T14:51:26.345Z,4.53
2023-03-06T14:52:28.504Z,3.67
2023-03-06T14:53:34.466Z,3.25
2023-03-06T14:54:36.951Z,4.50
2023-03-06T14:55:51.196Z,7.65